createdAt,value
2023-04-02T00:01:27.852Z,10.00
2023-04-02T00:04:09.082Z,7.03
2023-04-02T00:06:45.133Z,8.10
2023-04-02T00:09:27.803Z,6.57
2023-04-02T00:11:57.618Z,8.53
2023-04-02T00:14:28.247Z,6.67
2023-04-02T00:16:57.711Z,8.07
2023-04-02T00:19:33.373Z,5.93
2023-04-02T00:22:03.689Z,8.33
2023-04-02T00:24:31.682Z,4.33
2023-04-02T00:27:01.596Z,7.10
2023-04-02T00:29:29.526Z,11.87
2023-04-02T00:32:01.045Z,5.57
2023-04-02T00:34:33.733Z,6.33
2023-04-02T00:37:02.031Z,10.57
2023-04-02T00:39:34.195Z,9.63
2023-04-02T00:42:06.018Z,6.23
2023-04-02T00:44:38.754Z,8.20
2023-04-02T00:47:15.098Z,7.07
2023-04-02T00:49:44.232Z,7.07
2023-04-02T00:52:15.835Z,7.57
2023-04-02T00:54:49.296Z,5.13
2023-04-02T00:57:23.501Z,8.23
2023-04-02T00:59:58.730Z,6.73
2023-04-02T01:02:30.129Z,6.43
2023-04-02T01:05:00.829Z,6.20
2023-04-02T01:07:52.638Z,6.70
2023-04-02T01:10:45.758Z,6.00
2023-04-02T01:13:25.063Z,6.90
2023-04-02T01:16:02.402Z,6.90
2023-04-02T01:18:46.457Z,3.03
2023-04-02T01:21:30.991Z,6.43
2023-04-02T01:24:04.046Z,8.13
2023-04-02T01:26:47.032Z,5.93
2023-04-02T01:29:18.501Z,7.90
2023-04-02T01:31:48.033Z,6.40
2023-04-02T01:34:18.636Z,8.57
2023-04-02T01:37:01.304Z,8.10
2023-04-02T01:39:43.999Z,5.23
2023-04-02T01:42:18.773Z,7.17
2023-04-02T01:44:50.553Z,8.23
2023-04-02T01:47:21.039Z,7.20
2023-04-02T01:49:49.321Z,11.70
2023-04-02T01:52:20.470Z,7.00
2023-04-02T01:54:48.694Z,9.47
2023-04-02T01:57:17.756Z,13.87
2023-04-02T01:59:46.344Z,8.77
2023-04-02T02:02:16.191Z,12.83
2023-04-02T02:04:45.152Z,6.67
2023-04-02T02:07:17.224Z,10.13
2023-04-02T02:09:46.035Z,11.03
2023-04-02T02:12:15.800Z,13.60
2023-04-02T02:14:48.808Z,18.57
2023-04-02T02:17:21.636Z,15.07
2023-04-02T02:19:53.141Z,11.70
2023-04-02T02:22:28.300Z,14.70
2023-04-02T02:24:57.551Z,13.53
2023-04-02T02:27:56.845Z,9.63
2023-04-02T02:30:28.346Z,11.43
2023-04-02T02:33:03.364Z,12.50
2023-04-02T02:35:38.468Z,11.50
2023-04-02T02:38:30.046Z,18.37
2023-04-02T02:41:03.054Z,16.93
2023-04-02T02:43:31.546Z,14.23
2023-04-02T02:46:00.425Z,13.20
2023-04-02T02:48:37.240Z,9.60
2023-04-02T02:51:11.727Z,8.17
2023-04-02T02:53:49.572Z,11.77
2023-04-02T02:56:18.216Z,14.87
2023-04-02T02:58:46.262Z,12.20
2023-04-02T03:01:14.222Z,11.40
2023-04-02T03:03:44.990Z,11.60
2023-04-02T03:06:17.138Z,14.23
2023-04-02T03:08:49.609Z,11.87
2023-04-02T03:11:24.188Z,10.00
2023-04-02T03:13:56.259Z,14.03
2023-04-02T03:16:28.764Z,12.77
2023-04-02T03:19:02.828Z,15.43
2023-04-02T03:21:37.395Z,9.97
2023-04-02T03:24:13.250Z,14.23
2023-04-02T03:26:44.869Z,10.57
2023-04-02T03:29:18.191Z,13.47
2023-04-02T03:31:49.629Z,13.33
2023-04-02T03:34:25.687Z,12.53
2023-04-02T03:36:58.655Z,12.93
2023-04-02T03:39:34.546Z,11.03
2023-04-02T03:42:08.509Z,10.57
2023-04-02T03:44:40.413Z,11.67
2023-04-02T03:47:15.729Z,12.23
2023-04-02T03:49:49.255Z,11.67
2023-04-02T03:52:24.068Z,15.10
2023-04-02T03:54:54.010Z,8.43
2023-04-02T03:57:29.524Z,9.23
2023-04-02T04:00:02.537Z,12.13
2023-04-02T04:02:41.245Z,9.73
2023-04-02T04:05:22.343Z,8.03
2023-04-02T04:07:54.576Z,10.73
2023-04-02T04:10:27.155Z,10.23
2023-04-02T04:13:02.496Z,8.80
2023-04-02T04:15:34.789Z,8.90
2023-04-02T04:18:10.607Z,9.63
2023-04-02T04:20:48.279Z,8.63
2023-04-02T04:23:25.878Z,4.50
2023-04-02T04:25:59.893Z,8.33
2023-04-02T04:28:38.377Z,9.53
2023-04-02T04:31:18.140Z,17.03
2023-04-02T04:33:54.868Z,7.13
2023-04-02T04:36:28.754Z,10.23
2023-04-02T04:39:00.512Z,9.47
2023-04-02T04:41:33.432Z,6.97
2023-04-02T04:44:07.907Z,6.37
2023-04-02T04:46:42.427Z,7.37
2023-04-02T04:49:16.480Z,8.10
2023-04-02T04:51:52.392Z,8.67
2023-04-02T04:54:21.217Z,7.40
2023-04-02T04:56:54.733Z,8.60
2023-04-02T04:59:26.979Z,4.67
2023-04-02T05:02:01.719Z,6.27
2023-04-02T05:04:36.225Z,7.07
2023-04-02T05:07:10.360Z,5.50
2023-04-02T05:09:42.228Z,7.73
2023-04-02T05:12:19.573Z,7.30
2023-04-02T05:14:52.617Z,9.87
2023-04-02T05:17:26.876Z,7.40
2023-04-02T05:20:01.023Z,5.50
2023-04-02T05:22:40.214Z,8.83
2023-04-02T05:25:19.815Z,6.47
2023-04-02T05:27:52.774Z,5.73
2023-04-02T05:30:49.448Z,5.47
2023-04-02T05:33:23.919Z,4.63
2023-04-02T05:35:59.125Z,7.33
2023-04-02T05:38:30.919Z,5.00
2023-04-02T05:41:05.034Z,5.47
2023-04-02T05:43:35.584Z,6.37
2023-04-02T05:46:15.219Z,7.67
2023-04-02T05:48:46.264Z,3.93
2023-04-02T05:51:21.900Z,6.37
2023-04-02T05:53:56.464Z,3.77
2023-04-02T05:56:30.095Z,5.27
2023-04-02T05:59:07.795Z,6.77
2023-04-02T06:01:43.041Z,6.33
2023-04-02T06:04:24.865Z,5.20
2023-04-02T06:07:02.189Z,4.97
2023-04-02T06:09:39.149Z,3.07
2023-04-02T06:12:16.904Z,4.67
2023-04-02T06:14:45.432Z,4.80
2023-04-02T06:17:16.596Z,4.47
2023-04-02T06:19:45.844Z,5.10
2023-04-02T06:22:23.834Z,4.77
2023-04-02T06:24:59.430Z,5.10
2023-04-02T06:27:28.797Z,4.70
2023-04-02T06:30:02.086Z,3.47
2023-04-02T06:32:33.173Z,7.23
2023-04-02T06:35:01.222Z,3.07
2023-04-02T06:37:34.068Z,2.33
2023-04-02T06:40:05.504Z,4.37
2023-04-02T06:42:37.046Z,6.53
2023-04-02T06:45:06.090Z,3.60
2023-04-02T06:47:38.712Z,4.63
2023-04-02T06:50:14.443Z,3.00
2023-04-02T06:52:50.307Z,3.80
2023-04-02T06:55:34.408Z,1.97
2023-04-02T06:58:02.715Z,3.33
2023-04-02T07:00:37.915Z,3.77
2023-04-02T07:03:09.140Z,2.40
2023-04-02T07:05:37.535Z,2.67
2023-04-02T07:08:07.020Z,4.37
2023-04-02T07:10:36.496Z,2.03
2023-04-02T07:13:08.504Z,2.10
2023-04-02T07:15:37.066Z,2.33
2023-04-02T07:18:06.787Z,1.87
2023-04-02T07:20:37.705Z,2.50
2023-04-02T07:23:05.997Z,3.80
2023-04-02T07:25:34.308Z,3.47
2023-04-02T07:28:03.874Z,2.53
2023-04-02T07:30:31.878Z,3.40
2023-04-02T07:33:00.066Z,2.50
2023-04-02T07:35:28.087Z,2.30
2023-04-02T07:37:56.393Z,1.70
2023-04-02T07:40:24.572Z,3.03
2023-04-02T07:42:52.851Z,4.33
2023-04-02T07:45:22.816Z,1.93
2023-04-02T07:47:51.089Z,1.93
2023-04-02T07:50:19.204Z,3.97
2023-04-02T07:52:47.332Z,2.07
2023-04-02T07:55:16.774Z,4.03
2023-04-02T07:57:50.768Z,3.43
2023-04-02T08:00:20.749Z,3.90
2023-04-02T08:02:50.236Z,3.83
2023-04-02T08:05:18.646Z,4.47
2023-04-02T08:07:54.268Z,7.10
2023-04-02T08:10:22.510Z,4.53
2023-04-02T08:12:50.780Z,4.47
2023-04-02T08:15:19.327Z,4.20
2023-04-02T08:17:48.135Z,5.13
2023-04-02T08:20:19.202Z,4.63
2023-04-02T08:22:47.458Z,7.37
2023-04-02T08:25:16.110Z,5.03
2023-04-02T08:27:44.289Z,5.17
2023-04-02T08:30:13.973Z,9.90
2023-04-02T08:32:42.147Z,10.27
2023-04-02T08:35:11.702Z,8.40
2023-04-02T08:37:41.475Z,5.80
2023-04-02T08:40:22.145Z,7.53
2023-04-02T08:43:02.769Z,10.30
2023-04-02T08:45:39.629Z,7.07
2023-04-02T08:48:12.073Z,5.87
2023-04-02T08:50:42.943Z,5.80
2023-04-02T08:53:17.256Z,6.37
2023-04-02T08:55:55.748Z,10.47
2023-04-02T08:58:34.677Z,8.27
2023-04-02T09:01:04.595Z,4.43
2023-04-02T09:03:37.792Z,5.63
2023-04-02T09:06:09.987Z,9.80
2023-04-02T09:08:40.710Z,11.13
2023-04-02T09:11:17.319Z,6.07
2023-04-02T09:13:48.364Z,5.30
2023-04-02T09:16:21.395Z,5.60
2023-04-02T09:18:51.391Z,8.13
2023-04-02T09:21:30.471Z,5.43
2023-04-02T09:23:59.808Z,7.27
2023-04-02T09:26:30.022Z,5.30
2023-04-02T09:29:11.067Z,9.43
2023-04-02T09:31:44.105Z,7.77
2023-04-02T09:34:29.386Z,6.63
2023-04-02T09:36:58.054Z,6.00
2023-04-02T09:39:27.642Z,6.93
2023-04-02T09:42:05.494Z,10.67
2023-04-02T09:44:34.514Z,7.87
2023-04-02T09:47:04.780Z,8.53
2023-04-02T09:49:35.464Z,6.47
2023-04-02T09:52:28.692Z,4.40
2023-04-02T09:55:22.385Z,5.60
2023-04-02T09:57:52.095Z,6.33
2023-04-02T10:03:04.759Z,3.73
2023-04-02T10:05:40.134Z,5.87
2023-04-02T10:08:19.012Z,5.37
2023-04-02T10:10:51.127Z,7.07
2023-04-02T10:13:26.416Z,4.87
2023-04-02T10:16:00.257Z,6.23
2023-04-02T10:18:46.824Z,4.33
2023-04-02T10:21:18.372Z,6.23
2023-04-02T10:23:46.545Z,7.10
2023-04-02T10:26:39.426Z,5.17
2023-04-02T10:29:33.256Z,5.33
2023-04-02T10:32:08.749Z,3.87
2023-04-02T10:34:44.052Z,7.03
2023-04-02T10:37:42.409Z,5.77
2023-04-02T10:40:13.789Z,5.93
2023-04-02T10:42:49.935Z,8.67
2023-04-02T10:45:31.859Z,6.50
2023-04-02T10:48:07.576Z,6.17
2023-04-02T10:50:44.971Z,5.60
2023-04-02T10:53:17.139Z,4.33
2023-04-02T10:55:48.468Z,6.57
2023-04-02T10:58:24.946Z,5.53
2023-04-02T11:00:56.776Z,2.97
2023-04-02T11:03:32.640Z,4.33
2023-04-02T11:06:07.122Z,2.90
2023-04-02T11:08:42.797Z,3.67
2023-04-02T11:11:15.498Z,4.23
2023-04-02T11:13:53.669Z,2.50
2023-04-02T11:16:22.408Z,3.00
2023-04-02T11:19:23.713Z,3.47
2023-04-02T11:21:59.289Z,5.20
2023-04-02T11:24:38.050Z,4.53
2023-04-02T11:27:08.998Z,4.27
2023-04-02T11:29:41.562Z,5.70
2023-04-02T11:32:32.173Z,4.93
2023-04-02T11:35:28.982Z,6.00
2023-04-02T11:37:59.216Z,3.77
2023-04-02T11:40:46.470Z,8.87
2023-04-02T11:43:49.634Z,5.83
2023-04-02T11:46:42.180Z,5.33
2023-04-02T11:49:50.094Z,4.20
2023-04-02T11:52:23.220Z,5.50
2023-04-02T11:55:03.886Z,4.60
2023-04-02T11:57:51.823Z,2.83
2023-04-02T12:00:52.988Z,3.53
2023-04-02T12:03:47.372Z,2.13
2023-04-02T12:06:25.736Z,2.20
2023-04-02T12:09:05.926Z,3.10
2023-04-02T12:11:35.988Z,2.07
2023-04-02T12:14:28.570Z,1.93
2023-04-02T12:16:56.605Z,2.00
2023-04-02T12:19:27.020Z,2.27
2023-04-02T12:21:56.526Z,1.77
2023-04-02T12:24:26.516Z,1.40
2023-04-02T12:27:08.898Z,1.50
2023-04-02T12:29:39.067Z,1.40
2023-04-02T12:32:29.075Z,1.17
2023-04-02T12:35:01.627Z,1.07
2023-04-02T12:37:31.155Z,2.27
2023-04-02T12:40:02.231Z,1.23
2023-04-02T12:42:33.280Z,1.93
2023-04-02T12:45:01.741Z,1.17
2023-04-02T12:47:30.906Z,1.67
2023-04-02T12:50:01.922Z,1.50
2023-04-02T12:52:30.924Z,1.97
2023-04-02T12:55:00.904Z,2.13
2023-04-02T12:57:36.336Z,2.57
2023-04-02T13:00:35.048Z,4.37
2023-04-02T13:03:18.205Z,2.57
2023-04-02T13:05:49.385Z,4.73
2023-04-02T13:08:24.236Z,1.80
2023-04-02T13:10:57.635Z,1.67
2023-04-02T13:13:30.359Z,1.80
2023-04-02T13:16:06.617Z,1.40
2023-04-02T13:18:37.600Z,1.90
2023-04-02T13:21:06.833Z,3.87
2023-04-02T13:23:38.591Z,1.90
2023-04-02T13:26:21.992Z,4.17
2023-04-02T13:29:01.694Z,3.67
2023-04-02T13:31:32.392Z,3.40
2023-04-02T13:34:00.710Z,1.43
2023-04-02T13:36:29.480Z,1.20
2023-04-02T13:38:57.646Z,3.00
2023-04-02T13:41:27.875Z,1.70
2023-04-02T13:43:56.713Z,1.87
2023-04-02T13:46:27.863Z,3.83
2023-04-02T13:48:58.251Z,1.53
2023-04-02T13:51:33.021Z,3.03
2023-04-02T13:54:01.255Z,2.30
2023-04-02T13:56:29.634Z,1.20
2023-04-02T13:58:57.575Z,1.50
2023-04-02T14:01:26.394Z,1.73
2023-04-02T14:03:58.157Z,4.13
2023-04-02T14:06:39.440Z,2.30
2023-04-02T14:09:17.944Z,2.93
2023-04-02T14:11:56.228Z,3.73
2023-04-02T14:14:39.902Z,3.70
2023-04-02T14:17:18.000Z,2.83
2023-04-02T14:20:12.083Z,3.43
2023-04-02T14:22:53.926Z,5.30
2023-04-02T14:25:34.208Z,4.80
2023-04-02T14:28:10.760Z,3.87
2023-04-02T14:30:51.216Z,3.73
2023-04-02T14:33:30.258Z,3.47
2023-04-02T14:36:11.687Z,2.97
2023-04-02T14:38:47.681Z,2.30
2023-04-02T14:41:21.572Z,4.63
2023-04-02T14:43:55.386Z,3.77
2023-04-02T14:46:27.757Z,2.53
2023-04-02T14:48:59.541Z,4.37
2023-04-02T14:51:36.269Z,3.17
2023-04-02T14:54:10.733Z,4.37
2023-04-02T14:56:45.477Z,3.00
2023-04-02T14:59:24.649Z,3.17
2023-04-02T15:01:58.407Z,4.40
2023-04-02T15:04:32.073Z,4.50
2023-04-02T15:07:06.783Z,4.07
2023-04-02T15:09:39.667Z,3.87
2023-04-02T15:12:12.123Z,1.87
2023-04-02T15:14:45.357Z,5.37
2023-04-02T15:17:13.706Z,2.20
2023-04-02T15:19:41.605Z,3.87
2023-04-02T15:22:23.529Z,5.40
2023-04-02T15:25:03.925Z,2.80
2023-04-02T15:27:47.803Z,4.50
2023-04-02T15:30:22.159Z,3.30
2023-04-02T15:32:51.062Z,3.17
2023-04-02T15:35:28.765Z,2.33
2023-04-02T15:38:02.717Z,1.73
2023-04-02T15:40:52.049Z,2.30
2023-04-02T15:43:25.558Z,2.80
2023-04-02T15:46:05.366Z,3.90
2023-04-02T15:48:58.914Z,5.87
2023-04-02T15:52:00.533Z,5.17
2023-04-02T15:54:44.295Z,2.73
2023-04-02T15:57:25.833Z,3.50
2023-04-02T16:00:15.230Z,5.40
2023-04-02T16:03:02.766Z,2.80
2023-04-02T16:05:40.968Z,5.13
2023-04-02T16:08:33.813Z,5.30
2023-04-02T16:11:03.111Z,5.03
2023-04-02T16:13:33.887Z,5.20
2023-04-02T16:16:07.053Z,5.93
2023-04-02T16:18:44.522Z,3.70
2023-04-02T16:21:18.465Z,3.47
2023-04-02T16:23:46.472Z,5.43
2023-04-02T16:26:34.478Z,6.37
2023-04-02T16:29:15.578Z,5.70
2023-04-02T16:31:51.480Z,6.50
2023-04-02T16:34:30.432Z,5.37
2023-04-02T16:37:06.847Z,3.53
2023-04-02T16:39:42.523Z,4.40
2023-04-02T16:42:20.867Z,2.63
2023-04-02T16:45:02.996Z,2.83
2023-04-02T16:47:54.178Z,4.30
2023-04-02T16:50:31.781Z,4.33
2023-04-02T16:53:11.253Z,5.97
2023-04-02T16:55:53.238Z,5.77
2023-04-02T16:58:35.236Z,4.57
2023-04-02T17:01:12.921Z,7.20
2023-04-02T17:03:57.861Z,4.90
2023-04-02T17:06:36.590Z,5.03
2023-04-02T17:09:14.559Z,4.60
2023-04-02T17:11:46.450Z,5.87
2023-04-02T17:14:24.169Z,3.60
2023-04-02T17:16:55.840Z,5.50
2023-04-02T17:19:27.083Z,5.27
2023-04-02T17:21:59.003Z,3.27
2023-04-02T17:24:29.192Z,4.77
2023-04-02T17:27:01.616Z,4.20
2023-04-02T17:29:36.753Z,3.47
2023-04-02T17:32:13.323Z,4.63
2023-04-02T17:34:41.356Z,5.17
2023-04-02T17:37:23.791Z,5.23
2023-04-02T17:39:59.636Z,4.87
2023-04-02T17:42:39.147Z,3.37
2023-04-02T17:45:16.246Z,3.80
2023-04-02T17:47:51.202Z,3.23
2023-04-02T17:50:44.312Z,5.47
2023-04-02T17:53:22.752Z,4.47
2023-04-02T17:56:03.352Z,5.30
2023-04-02T17:58:59.168Z,3.73
2023-04-02T18:01:33.736Z,5.03
2023-04-02T18:04:19.645Z,3.53
2023-04-02T18:06:57.549Z,6.77
2023-04-02T18:09:38.385Z,6.00
2023-04-02T18:12:20.936Z,5.10
2023-04-02T18:15:02.874Z,5.43
2023-04-02T18:17:42.072Z,6.93
2023-04-02T18:20:24.475Z,6.63
2023-04-02T18:22:57.813Z,5.73
2023-04-02T18:25:36.512Z,6.63
2023-04-02T18:28:23.789Z,10.13
2023-04-02T18:30:59.127Z,10.40
2023-04-02T18:33:50.891Z,6.17
2023-04-02T18:36:24.724Z,8.13
2023-04-02T18:39:00.428Z,12.90
2023-04-02T18:41:43.110Z,8.70
2023-04-02T18:44:29.197Z,6.90
2023-04-02T18:47:06.144Z,7.77
2023-04-02T18:49:37.496Z,6.53
2023-04-02T18:52:12.626Z,7.33
2023-04-02T18:54:44.455Z,6.77
2023-04-02T18:57:16.206Z,7.80
2023-04-02T18:59:50.401Z,9.43
2023-04-02T19:02:31.847Z,7.63
2023-04-02T19:05:05.125Z,8.80
2023-04-02T19:07:38.970Z,7.53
2023-04-02T19:10:15.442Z,4.83
2023-04-02T19:12:43.452Z,6.73
2023-04-02T19:15:17.582Z,6.93
2023-04-02T19:17:49.436Z,9.37
2023-04-02T19:20:31.791Z,6.47
2023-04-02T19:23:14.568Z,7.13
2023-04-02T19:26:01.353Z,5.57
2023-04-02T19:28:34.811Z,7.47
2023-04-02T19:31:16.167Z,5.97
2023-04-02T19:33:51.175Z,7.43
2023-04-02T19:36:54.695Z,7.03
2023-04-02T19:39:49.310Z,5.73
2023-04-02T19:42:31.547Z,6.13
2023-04-02T19:45:00.152Z,5.70
2023-04-02T19:47:28.236Z,7.07
2023-04-02T19:49:57.508Z,7.23
2023-04-02T19:52:26.820Z,7.73
2023-04-02T19:54:54.772Z,6.63
2023-04-02T19:57:22.746Z,9.67
2023-04-02T19:59:50.726Z,5.57
2023-04-02T20:02:18.671Z,5.13
2023-04-02T20:04:46.661Z,6.37
2023-04-02T20:07:14.593Z,8.93
2023-04-02T20:09:44.032Z,6.23
2023-04-02T20:12:12.425Z,6.83
2023-04-02T20:14:40.432Z,7.93
2023-04-02T20:17:08.468Z,7.57
2023-04-02T20:19:36.411Z,5.80
2023-04-02T20:22:04.606Z,5.47
2023-04-02T20:24:32.588Z,10.47
2023-04-02T20:27:01.896Z,7.07
2023-04-02T20:29:31.844Z,7.23
2023-04-02T20:31:59.781Z,5.93
2023-04-02T20:34:27.876Z,7.73
2023-04-02T20:36:56.295Z,7.63
2023-04-02T20:39:24.216Z,8.13
2023-04-02T20:41:52.228Z,5.70
2023-04-02T20:44:21.830Z,9.63
2023-04-02T20:46:49.813Z,7.93
2023-04-02T20:49:17.784Z,7.03
2023-04-02T20:51:46.547Z,10.13
2023-04-02T20:54:15.328Z,4.33
2023-04-02T20:56:44.765Z,6.40
2023-04-02T20:59:13.123Z,7.63
2023-04-02T21:01:42.549Z,9.47
2023-04-02T21:04:10.645Z,6.13
2023-04-02T21:06:40.515Z,7.33
2023-04-02T21:09:12.881Z,5.60
2023-04-02T21:11:40.851Z,6.33
2023-04-02T21:14:08.813Z,8.10
2023-04-02T21:16:37.074Z,5.67
2023-04-02T21:19:08.576Z,5.10
2023-04-02T21:21:38.222Z,6.07
2023-04-02T21:24:08.051Z,6.20
2023-04-02T21:26:38.145Z,3.43
2023-04-02T21:29:06.987Z,5.47
2023-04-02T21:31:36.708Z,7.57
2023-04-02T21:34:07.037Z,6.90
2023-04-02T21:36:37.123Z,5.70
2023-04-02T21:39:07.194Z,4.23
2023-04-02T21:41:36.924Z,6.20
2023-04-02T21:44:06.520Z,5.67
2023-04-02T21:46:37.157Z,4.93
2023-04-02T21:49:08.430Z,4.60
2023-04-02T21:51:38.698Z,3.97
2023-04-02T21:54:07.709Z,4.10
2023-04-02T21:56:37.099Z,6.60
2023-04-02T21:59:06.883Z,3.77
2023-04-02T22:01:38.255Z,5.17
2023-04-02T22:04:09.506Z,4.23
2023-04-02T22:06:39.252Z,6.10
2023-04-02T22:09:09.511Z,6.87
2023-04-02T22:11:39.217Z,7.67
2023-04-02T22:14:07.208Z,6.13
2023-04-02T22:16:36.567Z,3.93
2023-04-02T22:19:09.791Z,4.80
2023-04-02T22:21:38.552Z,6.03
2023-04-02T22:24:09.207Z,7.73
2023-04-02T22:26:37.567Z,8.90
2023-04-02T22:29:06.183Z,5.40
2023-04-02T22:31:35.446Z,6.53
2023-04-02T22:34:05.176Z,4.57
2023-04-02T22:36:37.150Z,7.60
2023-04-02T22:39:10.296Z,4.93
2023-04-02T22:41:38.679Z,5.80
2023-04-02T22:44:06.771Z,6.53
2023-04-02T22:46:35.172Z,6.00
2023-04-02T22:49:03.465Z,8.60
2023-04-02T22:51:31.740Z,3.20
2023-04-02T22:54:01.137Z,5.23
2023-04-02T22:56:32.349Z,6.17
2023-04-02T22:59:00.798Z,8.13
2023-04-02T23:01:32.554Z,4.83
2023-04-02T23:04:00.663Z,8.67
2023-04-02T23:06:28.804Z,6.43
2023-04-02T23:08:56.821Z,5.43
2023-04-02T23:11:27.910Z,5.53
2023-04-02T23:13:57.780Z,7.83
2023-04-02T23:16:27.827Z,7.23
2023-04-02T23:18:57.196Z,9.23
2023-04-02T23:21:26.278Z,7.43
2023-04-02T23:23:54.861Z,5.33
2023-04-02T23:26:24.092Z,6.73
2023-04-02T23:28:53.426Z,4.73
2023-04-02T23:31:23.922Z,7.33
2023-04-02T23:33:53.304Z,6.43
2023-04-02T23:36:24.024Z,5.27
2023-04-02T23:38:55.100Z,7.23
2023-04-02T23:41:24.501Z,5.37
2023-04-02T23:43:54.014Z,5.87
2023-04-02T23:46:22.552Z,5.70
2023-04-02T23:48:51.541Z,7.93
2023-04-02T23:51:19.855Z,6.80
2023-04-02T23:53:47.914Z,7.53
2023-04-02T23:56:15.979Z,6.83
2023-04-02T23:58:44.040Z,7.20
